createdAt,value
2017-12-05T00:02:15.041Z,2.10
2017-12-05T00:04:42.575Z,2.10
2017-12-05T00:07:10.112Z,2.10
2017-12-05T00:09:37.691Z,2.00
2017-12-05T00:12:06.090Z,2.10
2017-12-05T00:14:33.623Z,2.10
2017-12-05T00:17:01.199Z,2.00
2017-12-05T00:19:28.736Z,2.00
2017-12-05T00:21:56.268Z,2.00
2017-12-05T00:24:24.134Z,1.90
2017-12-05T00:26:51.876Z,1.90
2017-12-05T00:29:19.553Z,1.90
2017-12-05T00:31:47.147Z,1.90
2017-12-05T00:34:16.468Z,1.90
2017-12-05T00:36:43.995Z,1.90
2017-12-05T00:39:12.325Z,1.90
2017-12-05T00:41:40.671Z,2.00
2017-12-05T00:44:08.208Z,2.00
2017-12-05T00:46:35.775Z,2.00
2017-12-05T00:49:03.304Z,2.00
2017-12-05T00:51:30.979Z,2.10
2017-12-05T00:53:58.563Z,2.00
2017-12-05T00:56:26.115Z,2.10
2017-12-05T00:58:53.643Z,2.10
2017-12-05T01:01:21.203Z,2.10
2017-12-05T01:03:49.048Z,2.10
2017-12-05T01:06:16.576Z,2.00
2017-12-05T01:08:44.143Z,2.10
2017-12-05T01:11:11.684Z,2.00
2017-12-05T01:13:39.984Z,2.10
2017-12-05T01:16:08.332Z,2.10
2017-12-05T01:18:35.872Z,2.10
2017-12-05T01:21:03.407Z,2.10
2017-12-05T01:23:30.984Z,2.10
2017-12-05T01:25:58.528Z,2.10
2017-12-05T01:28:26.074Z,2.10
2017-12-05T01:30:53.635Z,2.10
2017-12-05T01:33:21.176Z,2.10
2017-12-05T01:35:48.756Z,2.10
2017-12-05T01:38:17.307Z,2.10
2017-12-05T01:40:44.839Z,2.10
2017-12-05T01:43:12.398Z,2.10
2017-12-05T01:45:39.991Z,2.10
2017-12-05T01:48:08.286Z,2.00
2017-12-05T01:50:35.816Z,2.00
2017-12-05T01:53:03.388Z,2.10
2017-12-05T01:55:31.721Z,2.10
2017-12-05T01:57:59.257Z,2.10
2017-12-05T02:00:26.860Z,2.10
2017-12-05T02:02:54.420Z,2.20
2017-12-05T02:05:21.966Z,2.30
2017-12-05T02:07:49.552Z,2.20
2017-12-05T02:10:17.848Z,2.20
2017-12-05T02:12:46.145Z,2.20
2017-12-05T02:15:15.550Z,2.20
2017-12-05T02:17:43.095Z,2.20
2017-12-05T02:20:10.618Z,2.20
2017-12-05T02:22:38.380Z,2.20
2017-12-05T02:25:06.707Z,2.20
2017-12-05T02:27:34.256Z,2.20
2017-12-05T02:30:01.845Z,2.10
2017-12-05T02:32:29.383Z,2.10
2017-12-05T02:34:56.916Z,2.10
2017-12-05T02:37:24.471Z,2.10
2017-12-05T02:39:52.003Z,2.10
2017-12-05T02:42:19.536Z,2.10
2017-12-05T02:44:47.140Z,2.00
2017-12-05T02:47:16.360Z,2.10
2017-12-05T02:49:43.906Z,2.10
2017-12-05T02:52:11.476Z,2.10
2017-12-05T02:54:39.012Z,2.10
2017-12-05T02:57:07.337Z,2.10
2017-12-05T02:59:34.899Z,2.10
2017-12-05T03:02:02.448Z,2.20
2017-12-05T03:04:29.975Z,2.20
2017-12-05T03:06:57.887Z,2.20
2017-12-05T03:09:25.430Z,2.20
2017-12-05T03:11:52.971Z,2.20
2017-12-05T03:14:20.529Z,2.20
2017-12-05T03:16:48.080Z,2.20
2017-12-05T03:19:17.291Z,2.20
2017-12-05T03:21:44.855Z,2.20
2017-12-05T03:24:12.412Z,2.20
2017-12-05T03:26:39.952Z,2.20
2017-12-05T03:29:07.552Z,2.20
2017-12-05T03:31:35.173Z,2.20
2017-12-05T03:34:02.836Z,2.20
2017-12-05T03:36:30.399Z,2.20
2017-12-05T03:38:57.942Z,2.20
2017-12-05T03:41:26.248Z,2.20
2017-12-05T03:43:53.827Z,2.20
2017-12-05T03:46:21.364Z,2.20
2017-12-05T03:48:48.899Z,2.30
2017-12-05T03:51:17.258Z,2.20
2017-12-05T03:53:44.795Z,2.30
2017-12-05T03:56:12.330Z,2.30
2017-12-05T03:58:39.905Z,2.30
2017-12-05T04:01:07.451Z,2.30
2017-12-05T04:03:34.988Z,2.30
2017-12-05T04:06:02.585Z,2.40
2017-12-05T04:08:30.364Z,2.40
2017-12-05T04:10:57.913Z,2.30
2017-12-05T04:13:25.503Z,2.40
2017-12-05T04:15:53.799Z,2.40
2017-12-05T04:18:21.352Z,2.40
2017-12-05T04:20:48.909Z,2.40
2017-12-05T04:23:16.460Z,2.40
2017-12-05T04:25:44.758Z,2.40
2017-12-05T04:28:12.335Z,2.40
2017-12-05T04:30:39.872Z,2.40
2017-12-05T04:33:07.419Z,2.50
2017-12-05T04:35:35.011Z,2.40
2017-12-05T04:38:02.548Z,2.50
2017-12-05T04:40:30.096Z,2.40
2017-12-05T04:42:58.480Z,2.50
2017-12-05T04:45:26.029Z,2.50
2017-12-05T04:47:53.588Z,2.50
2017-12-05T04:50:21.927Z,2.50
2017-12-05T04:52:49.474Z,2.50
2017-12-05T04:55:17.040Z,2.50
2017-12-05T04:57:44.623Z,2.50
2017-12-05T05:00:12.160Z,2.50
2017-12-05T05:02:39.789Z,2.40
2017-12-05T05:05:07.360Z,2.40
2017-12-05T05:07:34.923Z,2.40
2017-12-05T05:10:02.987Z,2.40
2017-12-05T05:12:30.548Z,2.40
2017-12-05T05:14:58.079Z,2.40
2017-12-05T05:17:25.607Z,2.40
2017-12-05T05:19:53.192Z,2.40
2017-12-05T05:22:20.750Z,2.40
2017-12-05T05:24:48.295Z,2.40
2017-12-05T05:27:17.735Z,2.40
2017-12-05T05:29:45.272Z,2.30
2017-12-05T05:32:13.748Z,2.40
2017-12-05T05:34:41.311Z,2.40
2017-12-05T05:37:08.847Z,2.40
2017-12-05T05:39:36.416Z,2.40
2017-12-05T05:42:04.866Z,2.40
2017-12-05T05:44:32.415Z,2.40
2017-12-05T05:46:59.950Z,2.50
2017-12-05T05:49:27.512Z,2.50
2017-12-05T05:51:55.076Z,2.40
2017-12-05T05:54:22.627Z,2.50
2017-12-05T05:56:50.199Z,2.50
2017-12-05T05:59:17.740Z,2.50
2017-12-05T06:01:45.267Z,2.60
2017-12-05T06:04:14.549Z,2.60
2017-12-05T06:06:42.883Z,2.60
2017-12-05T06:09:10.421Z,2.60
2017-12-05T06:11:38.000Z,2.60
2017-12-05T06:14:05.551Z,2.60
2017-12-05T06:16:33.114Z,2.60
2017-12-05T06:19:00.673Z,2.50
2017-12-05T06:21:28.256Z,2.60
2017-12-05T06:23:55.807Z,2.60
2017-12-05T06:26:23.425Z,2.50
2017-12-05T06:28:50.963Z,2.50
2017-12-05T06:31:19.304Z,2.60
2017-12-05T06:33:46.879Z,2.60
2017-12-05T06:36:25.343Z,2.60
2017-12-05T06:46:30.556Z,2.40
2017-12-05T06:48:58.097Z,2.40
2017-12-05T06:51:25.675Z,2.50
2017-12-05T06:53:53.495Z,2.50
2017-12-05T06:56:21.802Z,2.50
2017-12-05T06:58:49.359Z,2.50
2017-12-05T07:01:16.887Z,2.60
2017-12-05T07:03:45.184Z,2.50
2017-12-05T07:06:14.464Z,2.50
2017-12-05T07:08:42.004Z,2.50
2017-12-05T07:11:09.536Z,2.50
2017-12-05T07:13:37.683Z,2.50
2017-12-05T07:16:05.215Z,2.50
2017-12-05T07:18:33.508Z,2.60
2017-12-05T07:21:01.260Z,2.60
2017-12-05T07:23:28.804Z,2.60
2017-12-05T07:25:57.100Z,2.70
2017-12-05T07:28:24.685Z,2.70
2017-12-05T07:30:52.239Z,2.70
2017-12-05T07:33:19.793Z,2.60
2017-12-05T07:35:47.429Z,2.70
2017-12-05T07:38:16.503Z,2.80
2017-12-05T07:40:44.072Z,2.80
2017-12-05T07:43:12.406Z,2.90
2017-12-05T07:45:39.943Z,2.90
2017-12-05T07:48:07.484Z,2.90
2017-12-05T07:50:35.070Z,2.90
2017-12-05T07:53:02.600Z,3.00
2017-12-05T07:55:30.196Z,3.00
2017-12-05T07:57:57.757Z,2.90
2017-12-05T08:00:25.283Z,3.00
2017-12-05T08:02:52.825Z,3.10
2017-12-05T08:05:21.231Z,3.00
2017-12-05T08:07:48.763Z,3.10
2017-12-05T08:10:17.270Z,3.10
2017-12-05T08:12:44.855Z,3.10
2017-12-05T08:15:12.664Z,3.20
2017-12-05T08:17:40.965Z,3.30
2017-12-05T08:20:08.533Z,3.30
2017-12-05T08:22:36.068Z,3.40
2017-12-05T08:25:03.636Z,3.40
2017-12-05T08:27:31.256Z,3.50
2017-12-05T08:29:58.797Z,3.50
2017-12-05T08:32:26.343Z,3.50
2017-12-05T08:34:53.949Z,3.60
2017-12-05T08:37:21.488Z,3.70
2017-12-05T08:39:49.439Z,3.90
2017-12-05T08:42:17.047Z,4.20
2017-12-05T08:44:44.592Z,4.20
2017-12-05T08:47:13.931Z,4.30
2017-12-05T08:49:41.508Z,4.30
2017-12-05T08:52:09.552Z,4.50
2017-12-05T08:54:37.091Z,4.60
2017-12-05T08:57:04.678Z,4.60
2017-12-05T08:59:32.215Z,4.60
2017-12-05T09:01:59.759Z,4.50
2017-12-05T09:04:28.088Z,4.40
2017-12-05T09:06:55.629Z,4.40
2017-12-05T09:09:23.165Z,4.40
2017-12-05T09:11:50.779Z,4.40
2017-12-05T09:14:19.155Z,4.50
2017-12-05T09:16:47.295Z,4.50
2017-12-05T09:19:17.576Z,4.70
2017-12-05T09:21:45.887Z,4.70
2017-12-05T09:24:14.583Z,4.70
2017-12-05T10:29:53.355Z,4.90
2017-12-05T10:32:20.890Z,4.80
2017-12-05T10:34:48.428Z,4.80
2017-12-05T10:37:16.447Z,4.80
2017-12-05T10:39:43.995Z,4.90
2017-12-05T10:42:11.971Z,4.80
2017-12-05T10:44:39.543Z,4.90
2017-12-05T10:47:07.866Z,5.00
2017-12-05T10:49:35.415Z,5.00
2017-12-05T10:52:02.990Z,5.10
2017-12-05T10:54:30.533Z,5.20
2017-12-05T10:56:58.174Z,5.10
2017-12-05T10:59:25.737Z,5.10
2017-12-05T11:01:53.276Z,5.10
2017-12-05T11:04:20.816Z,5.30
2017-12-05T11:06:48.549Z,5.40
2017-12-05T11:09:17.204Z,5.60
2017-12-05T11:11:44.735Z,5.50
2017-12-05T11:14:14.309Z,5.50
2017-12-05T11:16:41.869Z,5.50
2017-12-05T11:19:09.404Z,5.50
2017-12-05T11:21:36.965Z,5.60
2017-12-05T11:24:04.706Z,5.70
2017-12-05T11:26:32.237Z,5.70
2017-12-05T11:28:59.804Z,5.60
2017-12-05T11:31:28.103Z,5.80
2017-12-05T11:33:55.653Z,5.80
2017-12-05T11:36:23.255Z,5.80
2017-12-05T11:38:50.788Z,5.80
2017-12-05T11:41:18.350Z,5.70
2017-12-05T11:43:45.915Z,5.80
2017-12-05T11:46:25.860Z,6.10
2017-12-05T11:52:20.277Z,6.10
2017-12-05T11:54:47.809Z,6.00
2017-12-05T11:57:16.447Z,5.90
2017-12-05T11:59:44.028Z,5.80
2017-12-05T12:02:12.476Z,5.60
2017-12-05T12:04:40.015Z,5.60
2017-12-05T12:07:07.586Z,5.60
2017-12-05T12:09:35.887Z,5.80
2017-12-05T12:12:03.424Z,5.80
2017-12-05T12:14:31.782Z,5.80
2017-12-05T12:16:59.312Z,5.80
2017-12-05T12:19:27.615Z,5.80
2017-12-05T12:21:55.208Z,5.80
2017-12-05T12:24:22.782Z,5.60
2017-12-05T12:26:50.317Z,5.60
2017-12-05T12:29:18.121Z,5.50
2017-12-05T12:31:45.816Z,5.50
2017-12-05T12:34:24.865Z,5.50
2017-12-05T12:39:38.643Z,5.70
2017-12-05T12:42:06.196Z,5.70
2017-12-05T12:44:33.744Z,5.60
2017-12-05T12:47:01.323Z,5.70
2017-12-05T12:49:28.856Z,5.70
2017-12-05T12:51:56.388Z,5.80
2017-12-05T12:54:23.979Z,5.60
2017-12-05T12:56:51.516Z,5.50
2017-12-05T12:59:19.146Z,5.50
2017-12-05T13:01:46.731Z,5.50
2017-12-05T13:04:26.099Z,5.50
2017-12-05T13:15:33.705Z,5.50
2017-12-05T13:18:01.268Z,5.40
2017-12-05T13:20:28.814Z,5.40
2017-12-05T13:22:56.387Z,5.40
2017-12-05T13:25:24.091Z,5.50
2017-12-05T13:27:51.627Z,5.40
2017-12-05T13:30:19.192Z,5.50
2017-12-05T13:32:47.019Z,5.40
2017-12-05T13:35:16.467Z,5.40
2017-12-05T13:37:44.091Z,5.40
2017-12-05T13:40:11.631Z,5.40
2017-12-05T13:42:39.944Z,5.20
2017-12-05T13:45:07.516Z,5.10
2017-12-05T13:47:35.049Z,5.10
2017-12-05T13:50:02.602Z,5.10
2017-12-05T13:52:30.189Z,5.10
2017-12-05T13:54:58.764Z,5.20
2017-12-05T13:57:26.303Z,5.20
2017-12-05T13:59:53.934Z,5.20
2017-12-05T14:02:22.528Z,5.00
2017-12-05T14:04:50.066Z,5.00
2017-12-05T14:07:17.838Z,5.00
2017-12-05T14:09:45.401Z,5.00
2017-12-05T14:12:14.644Z,5.10
2017-12-05T14:14:43.926Z,5.00
2017-12-05T14:17:11.488Z,5.00
2017-12-05T14:19:39.064Z,5.00
2017-12-05T14:22:06.659Z,5.00
2017-12-05T14:24:34.199Z,4.90
2017-12-05T14:27:01.741Z,4.80
2017-12-05T14:29:29.304Z,4.80
2017-12-05T14:31:56.848Z,4.80
2017-12-05T14:34:24.647Z,4.80
2017-12-05T14:36:52.175Z,4.80
2017-12-05T14:39:19.730Z,4.70
2017-12-05T14:41:47.274Z,4.70
2017-12-05T14:44:16.696Z,4.60
2017-12-05T14:46:44.245Z,4.60
2017-12-05T14:49:11.834Z,4.60
2017-12-05T14:51:40.174Z,4.60
2017-12-05T14:54:08.696Z,4.50
2017-12-05T14:56:36.355Z,4.50
2017-12-05T14:59:03.891Z,4.50
2017-12-05T15:01:31.424Z,4.40
2017-12-05T15:03:59.733Z,4.40
2017-12-05T15:06:27.343Z,4.30
2017-12-05T15:08:54.912Z,4.40
2017-12-05T15:11:23.233Z,4.30
2017-12-05T15:13:50.796Z,4.30
2017-12-05T15:16:18.348Z,4.30
2017-12-05T15:18:46.213Z,4.20
2017-12-05T15:21:19.625Z,4.30
2017-12-05T15:31:52.231Z,4.10
2017-12-05T15:34:19.764Z,3.60
2017-12-05T15:36:47.716Z,3.50
2017-12-05T15:39:15.721Z,3.50
2017-12-05T15:41:43.259Z,3.50
2017-12-05T15:44:10.807Z,3.50
2017-12-05T15:46:38.384Z,3.50
2017-12-05T15:49:05.942Z,3.60
2017-12-05T15:51:33.496Z,3.60
2017-12-05T15:54:01.092Z,3.70
2017-12-05T15:56:28.648Z,3.60
2017-12-05T15:58:56.189Z,3.70
2017-12-05T16:01:23.752Z,3.70
2017-12-05T16:03:51.288Z,3.70
2017-12-05T16:06:19.910Z,3.70
2017-12-05T16:08:47.510Z,3.70
2017-12-05T16:11:16.516Z,3.60
2017-12-05T16:13:44.820Z,3.70
2017-12-05T16:16:13.007Z,3.70
2017-12-05T16:18:40.544Z,3.70
2017-12-05T16:21:08.095Z,3.70
2017-12-05T16:23:35.676Z,3.70
2017-12-05T16:26:03.220Z,3.80
2017-12-05T16:28:30.837Z,3.80
2017-12-05T16:30:59.282Z,3.80
2017-12-05T16:33:26.925Z,3.80
2017-12-05T16:35:54.496Z,3.80
2017-12-05T16:38:25.340Z,3.90
2017-12-05T16:40:52.884Z,3.90
2017-12-05T16:43:20.441Z,3.80
2017-12-05T16:45:48.022Z,3.80
2017-12-05T16:48:16.423Z,3.80
2017-12-05T16:50:44.765Z,3.90
2017-12-05T16:53:12.369Z,3.80
2017-12-05T16:55:40.685Z,3.80
2017-12-05T16:58:08.271Z,3.80
2017-12-05T17:00:35.895Z,3.80
2017-12-05T17:03:03.569Z,3.90
2017-12-05T17:05:31.114Z,3.90
2017-12-05T17:07:58.704Z,3.90
2017-12-05T17:10:26.243Z,3.90
2017-12-05T17:12:53.779Z,3.90
2017-12-05T17:15:22.131Z,3.90
2017-12-05T17:17:49.691Z,3.80
2017-12-05T17:20:18.010Z,3.80
2017-12-05T17:22:45.606Z,3.80
2017-12-05T17:25:25.327Z,3.80
2017-12-05T17:30:27.156Z,3.90
2017-12-05T17:32:55.776Z,3.80
2017-12-05T17:35:23.388Z,3.70
2017-12-05T17:37:50.988Z,3.80
2017-12-05T17:40:18.549Z,3.90
2017-12-05T17:42:46.096Z,3.90
2017-12-05T17:45:24.636Z,3.90
2017-12-05T17:50:43.063Z,3.90
2017-12-05T17:53:11.364Z,3.80
2017-12-05T17:55:38.912Z,3.80
2017-12-05T17:58:06.539Z,3.80
2017-12-05T18:00:34.090Z,3.80
2017-12-05T18:03:01.631Z,3.80
2017-12-05T18:05:29.188Z,3.80
2017-12-05T18:07:56.750Z,3.90
2017-12-05T18:10:24.283Z,3.90
2017-12-05T18:12:51.849Z,3.80
2017-12-05T18:15:19.400Z,3.80
2017-12-05T18:17:46.933Z,3.80
2017-12-05T18:20:16.426Z,3.90
2017-12-05T18:22:44.756Z,3.90
2017-12-05T18:25:12.325Z,3.90
2017-12-05T18:27:39.903Z,3.90
2017-12-05T18:30:07.446Z,3.90
2017-12-05T18:32:34.992Z,3.90
2017-12-05T18:35:02.580Z,3.90
2017-12-05T18:37:30.229Z,3.80
2017-12-05T18:39:57.785Z,3.70
2017-12-05T18:42:25.774Z,3.80
2017-12-05T18:44:54.091Z,3.70
2017-12-05T18:47:21.654Z,3.70
2017-12-05T18:49:49.225Z,3.70
2017-12-05T18:52:16.760Z,3.70
2017-12-05T18:54:44.309Z,3.70
2017-12-05T18:57:11.902Z,3.70
2017-12-05T18:59:39.436Z,3.70
2017-12-05T19:02:07.735Z,3.70
2017-12-05T19:04:35.377Z,3.70
2017-12-05T19:07:02.979Z,3.70
2017-12-05T19:09:30.525Z,3.70
2017-12-05T19:15:04.743Z,3.70
2017-12-05T19:17:32.278Z,3.60
2017-12-05T19:19:59.808Z,3.70
2017-12-05T19:22:27.364Z,3.70
2017-12-05T19:24:54.931Z,3.70
2017-12-05T19:27:22.467Z,3.60
2017-12-05T19:29:50.047Z,3.70
2017-12-05T19:32:17.578Z,3.70
2017-12-05T19:34:45.153Z,3.60
2017-12-05T19:37:13.656Z,3.60
2017-12-05T19:39:41.223Z,3.60
2017-12-05T19:42:09.560Z,3.50
2017-12-05T19:44:37.289Z,3.50
2017-12-05T19:47:04.869Z,3.50
2017-12-05T19:49:32.512Z,3.50
2017-12-05T19:52:00.309Z,3.50
2017-12-05T19:54:27.899Z,3.50
2017-12-05T19:56:56.211Z,3.50
2017-12-05T19:59:23.811Z,3.50
2017-12-05T20:01:51.382Z,3.60
2017-12-05T20:04:19.211Z,3.60
2017-12-05T20:06:46.932Z,3.50
2017-12-05T20:09:15.536Z,3.60
2017-12-05T20:11:43.209Z,3.60
2017-12-05T20:14:10.869Z,3.60
2017-12-05T20:16:38.751Z,3.50
2017-12-05T20:19:06.513Z,3.40
2017-12-05T20:21:34.914Z,3.40
2017-12-05T20:24:02.475Z,3.40
2017-12-05T20:26:30.076Z,3.40
2017-12-05T20:28:57.636Z,3.40
2017-12-05T20:31:25.192Z,3.50
2017-12-05T20:33:52.959Z,3.60
2017-12-05T20:36:20.578Z,3.60
2017-12-05T20:38:48.204Z,3.50
2017-12-05T20:41:16.465Z,3.40
2017-12-05T20:43:44.092Z,3.40
2017-12-05T20:46:11.861Z,3.50
2017-12-05T20:48:40.485Z,3.50
2017-12-05T20:51:08.092Z,3.40
2017-12-05T20:53:35.639Z,3.40
2017-12-05T20:56:03.168Z,3.30
2017-12-05T20:58:30.748Z,3.30
2017-12-05T21:00:58.287Z,3.30
2017-12-05T21:03:25.825Z,3.20
2017-12-05T21:05:53.407Z,3.30
2017-12-05T21:08:20.952Z,3.40
2017-12-05T21:10:48.490Z,3.40
2017-12-05T21:13:17.359Z,3.20
2017-12-05T21:15:44.913Z,3.20
2017-12-05T21:18:12.735Z,3.20
2017-12-05T21:20:40.303Z,3.20
2017-12-05T21:23:07.845Z,3.20
2017-12-05T21:25:35.379Z,3.10
2017-12-05T21:28:03.857Z,3.00
2017-12-05T21:30:31.406Z,3.00
2017-12-05T21:32:59.711Z,2.90
2017-12-05T21:35:27.393Z,2.90
2017-12-05T21:37:55.000Z,3.00
2017-12-05T21:40:23.304Z,3.00
2017-12-05T21:42:50.861Z,3.00
2017-12-05T21:45:18.412Z,2.90
2017-12-05T21:47:46.724Z,2.90
2017-12-05T21:50:24.568Z,2.90
2017-12-05T21:55:34.212Z,2.90
2017-12-05T21:58:01.779Z,2.80
2017-12-05T22:00:30.092Z,2.80
2017-12-05T22:02:57.654Z,2.80
2017-12-05T22:05:25.199Z,2.90
2017-12-05T22:07:53.512Z,2.90
2017-12-05T22:10:21.510Z,2.90
2017-12-05T22:12:49.043Z,2.90
2017-12-05T22:15:16.656Z,2.90
2017-12-05T22:17:44.226Z,3.00
2017-12-05T22:20:12.043Z,3.10
2017-12-05T22:22:39.580Z,3.10
2017-12-05T22:25:07.145Z,2.90
2017-12-05T22:27:34.727Z,2.90
2017-12-05T22:30:02.311Z,2.90
2017-12-05T22:32:30.668Z,2.90
2017-12-05T22:34:58.227Z,2.90
2017-12-05T22:37:25.809Z,2.90
2017-12-05T22:39:54.149Z,2.90
2017-12-05T22:42:21.701Z,2.90
2017-12-05T22:44:49.251Z,2.90
2017-12-05T22:47:16.817Z,2.90
2017-12-05T22:49:45.127Z,3.00
2017-12-05T22:52:13.583Z,3.00
2017-12-05T22:54:41.212Z,3.00
2017-12-05T22:57:08.774Z,2.90
2017-12-05T22:59:36.309Z,2.90
2017-12-05T23:02:03.881Z,2.80
2017-12-05T23:04:31.449Z,2.80
2017-12-05T23:06:59.004Z,2.80
2017-12-05T23:09:26.571Z,2.80
2017-12-05T23:11:54.116Z,2.80
2017-12-05T23:14:21.656Z,2.90
2017-12-05T23:16:49.252Z,3.00
2017-12-05T23:19:16.810Z,3.00
2017-12-05T23:21:45.043Z,3.00
2017-12-05T23:24:12.616Z,3.00
2017-12-05T23:26:40.920Z,3.00
2017-12-05T23:29:08.470Z,3.10
2017-12-05T23:31:36.033Z,3.10
2017-12-05T23:34:03.567Z,3.10
2017-12-05T23:36:31.129Z,3.00
2017-12-05T23:38:58.724Z,3.10
2017-12-05T23:41:26.268Z,3.00
2017-12-05T23:43:53.807Z,3.10
2017-12-05T23:46:21.504Z,3.00
2017-12-05T23:48:49.043Z,2.90
2017-12-05T23:51:16.584Z,2.90
2017-12-05T23:53:44.159Z,2.90
2017-12-05T23:56:11.702Z,2.90
2017-12-05T23:58:39.231Z,2.80
